sensor_id;sensor_type;location;lat;lon;timestamp;P1;durP1;ratioP1;P2;durP2;ratioP2
9100;SDS011;4586;52.518;13.486;2024-02-26T00:00:32;11.00;;;9.13;;
9100;SDS011;4586;52.518;13.486;2024-02-26T00:04:34;10.77;;;7.93;;
9100;SDS011;4586;52.518;13.486;2024-02-26T00:08:37;17.00;;;8.20;;
9100;SDS011;4586;52.518;13.486;2024-02-26T00:12:39;14.03;;;8.63;;
9100;SDS011;4586;52.518;13.486;2024-02-26T00:16:41;11.30;;;8.03;;
9100;SDS011;4586;52.518;13.486;2024-02-26T00:20:43;13.33;;;8.17;;
9100;SDS011;4586;52.518;13.486;2024-02-26T00:24:45;11.17;;;8.50;;
9100;SDS011;4586;52.518;13.486;2024-02-26T00:28:48;11.87;;;8.47;;
9100;SDS011;4586;52.518;13.486;2024-02-26T00:32:50;11.77;;;9.00;;
9100;SDS011;4586;52.518;13.486;2024-02-26T00:36:52;12.00;;;8.87;;
9100;SDS011;4586;52.518;13.486;2024-02-26T00:40:54;9.07;;;7.30;;
9100;SDS011;4586;52.518;13.486;2024-02-26T00:44:56;9.47;;;6.83;;
9100;SDS011;4586;52.518;13.486;2024-02-26T00:48:58;9.90;;;7.27;;
9100;SDS011;4586;52.518;13.486;2024-02-26T00:53:01;11.20;;;6.90;;
9100;SDS011;4586;52.518;13.486;2024-02-26T00:57:03;7.90;;;6.33;;
9100;SDS011;4586;52.518;13.486;2024-02-26T01:01:05;9.53;;;6.57;;
9100;SDS011;4586;52.518;13.486;2024-02-26T01:05:08;7.90;;;5.07;;
9100;SDS011;4586;52.518;13.486;2024-02-26T01:09:10;7.10;;;4.87;;
9100;SDS011;4586;52.518;13.486;2024-02-26T01:13:12;8.20;;;5.20;;
9100;SDS011;4586;52.518;13.486;2024-02-26T01:17:14;5.90;;;4.90;;
9100;SDS011;4586;52.518;13.486;2024-02-26T01:21:17;7.27;;;5.40;;
9100;SDS011;4586;52.518;13.486;2024-02-26T01:25:19;6.00;;;5.20;;
9100;SDS011;4586;52.518;13.486;2024-02-26T01:29:22;6.30;;;5.20;;
9100;SDS011;4586;52.518;13.486;2024-02-26T01:33:25;7.70;;;5.60;;
9100;SDS011;4586;52.518;13.486;2024-02-26T01:37:27;5.10;;;4.40;;
9100;SDS011;4586;52.518;13.486;2024-02-26T01:41:29;6.43;;;5.07;;
9100;SDS011;4586;52.518;13.486;2024-02-26T01:45:32;6.63;;;5.50;;
9100;SDS011;4586;52.518;13.486;2024-02-26T01:49:34;7.13;;;5.20;;
9100;SDS011;4586;52.518;13.486;2024-02-26T01:53:37;7.77;;;5.13;;
9100;SDS011;4586;52.518;13.486;2024-02-26T01:57:40;6.83;;;5.50;;
9100;SDS011;4586;52.518;13.486;2024-02-26T02:01:44;7.73;;;4.60;;
9100;SDS011;4586;52.518;13.486;2024-02-26T02:05:46;9.77;;;5.60;;
9100;SDS011;4586;52.518;13.486;2024-02-26T02:09:48;8.13;;;4.90;;
9100;SDS011;4586;52.518;13.486;2024-02-26T02:13:51;4.30;;;3.90;;
9100;SDS011;4586;52.518;13.486;2024-02-26T02:17:53;5.07;;;4.47;;
9100;SDS011;4586;52.518;13.486;2024-02-26T02:21:55;6.53;;;4.80;;
9100;SDS011;4586;52.518;13.486;2024-02-26T02:25:57;7.23;;;4.50;;
9100;SDS011;4586;52.518;13.486;2024-02-26T02:30:00;6.90;;;4.23;;
9100;SDS011;4586;52.518;13.486;2024-02-26T02:34:03;5.37;;;4.27;;
9100;SDS011;4586;52.518;13.486;2024-02-26T02:38:05;4.67;;;3.67;;
9100;SDS011;4586;52.518;13.486;2024-02-26T02:42:07;6.27;;;4.97;;
9100;SDS011;4586;52.518;13.486;2024-02-26T02:46:09;5.37;;;3.57;;
9100;SDS011;4586;52.518;13.486;2024-02-26T02:50:11;4.93;;;3.30;;
9100;SDS011;4586;52.518;13.486;2024-02-26T02:54:14;4.93;;;4.17;;
9100;SDS011;4586;52.518;13.486;2024-02-26T02:58:16;3.07;;;2.77;;
9100;SDS011;4586;52.518;13.486;2024-02-26T03:02:18;3.73;;;3.10;;
9100;SDS011;4586;52.518;13.486;2024-02-26T03:06:20;5.70;;;3.30;;
9100;SDS011;4586;52.518;13.486;2024-02-26T03:10:22;4.70;;;3.60;;
9100;SDS011;4586;52.518;13.486;2024-02-26T03:14:25;4.50;;;2.93;;
9100;SDS011;4586;52.518;13.486;2024-02-26T03:18:27;3.97;;;3.17;;
9100;SDS011;4586;52.518;13.486;2024-02-26T03:22:29;3.93;;;3.07;;
9100;SDS011;4586;52.518;13.486;2024-02-26T03:26:31;5.80;;;3.30;;
9100;SDS011;4586;52.518;13.486;2024-02-26T03:30:33;4.60;;;3.50;;
9100;SDS011;4586;52.518;13.486;2024-02-26T03:34:35;4.00;;;3.30;;
9100;SDS011;4586;52.518;13.486;2024-02-26T03:38:38;5.17;;;3.90;;
9100;SDS011;4586;52.518;13.486;2024-02-26T03:42:40;5.13;;;3.37;;
9100;SDS011;4586;52.518;13.486;2024-02-26T03:46:42;3.77;;;3.27;;
9100;SDS011;4586;52.518;13.486;2024-02-26T03:50:44;6.00;;;3.60;;
9100;SDS011;4586;52.518;13.486;2024-02-26T03:54:47;5.63;;;3.67;;
9100;SDS011;4586;52.518;13.486;2024-02-26T03:58:49;4.60;;;4.07;;
9100;SDS011;4586;52.518;13.486;2024-02-26T04:02:51;6.73;;;3.93;;
9100;SDS011;4586;52.518;13.486;2024-02-26T04:06:53;9.57;;;4.83;;
9100;SDS011;4586;52.518;13.486;2024-02-26T04:10:56;7.27;;;4.70;;
9100;SDS011;4586;52.518;13.486;2024-02-26T04:14:58;6.10;;;4.77;;
9100;SDS011;4586;52.518;13.486;2024-02-26T04:19:00;7.47;;;4.87;;
9100;SDS011;4586;52.518;13.486;2024-02-26T04:23:03;6.87;;;4.70;;
9100;SDS011;4586;52.518;13.486;2024-02-26T04:27:05;9.50;;;6.00;;
9100;SDS011;4586;52.518;13.486;2024-02-26T04:31:07;14.50;;;5.67;;
9100;SDS011;4586;52.518;13.486;2024-02-26T04:35:09;8.27;;;5.13;;
9100;SDS011;4586;52.518;13.486;2024-02-26T04:39:12;10.73;;;6.00;;
9100;SDS011;4586;52.518;13.486;2024-02-26T04:43:14;13.23;;;6.27;;
9100;SDS011;4586;52.518;13.486;2024-02-26T04:47:16;9.47;;;6.07;;
9100;SDS011;4586;52.518;13.486;2024-02-26T04:51:18;12.07;;;6.57;;
9100;SDS011;4586;52.518;13.486;2024-02-26T04:55:20;15.30;;;6.70;;
9100;SDS011;4586;52.518;13.486;2024-02-26T04:59:23;12.03;;;6.77;;
9100;SDS011;4586;52.518;13.486;2024-02-26T05:03:25;10.33;;;6.33;;
9100;SDS011;4586;52.518;13.486;2024-02-26T05:07:27;7.60;;;5.67;;
9100;SDS011;4586;52.518;13.486;2024-02-26T05:11:29;18.43;;;9.87;;
9100;SDS011;4586;52.518;13.486;2024-02-26T05:15:32;16.10;;;8.43;;
9100;SDS011;4586;52.518;13.486;2024-02-26T05:19:34;20.63;;;9.23;;
9100;SDS011;4586;52.518;13.486;2024-02-26T05:23:36;13.93;;;7.83;;
9100;SDS011;4586;52.518;13.486;2024-02-26T05:27:38;14.40;;;6.87;;
9100;SDS011;4586;52.518;13.486;2024-02-26T05:31:43;14.83;;;7.80;;
9100;SDS011;4586;52.518;13.486;2024-02-26T05:35:45;12.47;;;6.67;;
9100;SDS011;4586;52.518;13.486;2024-02-26T05:39:48;13.90;;;6.57;;
9100;SDS011;4586;52.518;13.486;2024-02-26T05:43:50;9.00;;;6.23;;
9100;SDS011;4586;52.518;13.486;2024-02-26T05:47:52;10.13;;;6.03;;
9100;SDS011;4586;52.518;13.486;2024-02-26T05:51:54;11.37;;;6.37;;
9100;SDS011;4586;52.518;13.486;2024-02-26T05:55:56;13.00;;;6.77;;
9100;SDS011;4586;52.518;13.486;2024-02-26T05:59:58;10.43;;;6.60;;
9100;SDS011;4586;52.518;13.486;2024-02-26T06:04:01;11.40;;;7.13;;
9100;SDS011;4586;52.518;13.486;2024-02-26T06:08:03;12.90;;;6.97;;
9100;SDS011;4586;52.518;13.486;2024-02-26T06:12:05;13.23;;;7.37;;
9100;SDS011;4586;52.518;13.486;2024-02-26T06:16:08;13.63;;;8.17;;
9100;SDS011;4586;52.518;13.486;2024-02-26T06:20:10;16.23;;;8.17;;
9100;SDS011;4586;52.518;13.486;2024-02-26T06:24:12;13.43;;;8.27;;
9100;SDS011;4586;52.518;13.486;2024-02-26T06:28:15;14.63;;;8.47;;
9100;SDS011;4586;52.518;13.486;2024-02-26T06:32:17;14.03;;;8.30;;
9100;SDS011;4586;52.518;13.486;2024-02-26T06:36:19;12.43;;;7.97;;
9100;SDS011;4586;52.518;13.486;2024-02-26T06:40:21;10.70;;;7.87;;
9100;SDS011;4586;52.518;13.486;2024-02-26T06:44:24;13.17;;;7.90;;
9100;SDS011;4586;52.518;13.486;2024-02-26T06:48:26;9.77;;;7.03;;
9100;SDS011;4586;52.518;13.486;2024-02-26T06:52:28;10.80;;;7.50;;
9100;SDS011;4586;52.518;13.486;2024-02-26T06:56:30;12.50;;;8.30;;
9100;SDS011;4586;52.518;13.486;2024-02-26T07:00:32;13.00;;;7.77;;
9100;SDS011;4586;52.518;13.486;2024-02-26T07:04:34;9.97;;;6.90;;
9100;SDS011;4586;52.518;13.486;2024-02-26T07:08:37;10.07;;;7.03;;
9100;SDS011;4586;52.518;13.486;2024-02-26T07:12:39;8.60;;;7.27;;
9100;SDS011;4586;52.518;13.486;2024-02-26T07:16:41;10.10;;;7.10;;
9100;SDS011;4586;52.518;13.486;2024-02-26T07:20:43;10.17;;;7.43;;
9100;SDS011;4586;52.518;13.486;2024-02-26T07:24:45;10.57;;;7.20;;
9100;SDS011;4586;52.518;13.486;2024-02-26T07:28:47;11.17;;;7.40;;
9100;SDS011;4586;52.518;13.486;2024-02-26T07:32:50;9.60;;;7.40;;
9100;SDS011;4586;52.518;13.486;2024-02-26T07:36:52;11.30;;;7.47;;
9100;SDS011;4586;52.518;13.486;2024-02-26T07:40:54;11.57;;;8.20;;
9100;SDS011;4586;52.518;13.486;2024-02-26T07:45:04;13.40;;;9.20;;
9100;SDS011;4586;52.518;13.486;2024-02-26T07:49:06;11.33;;;7.93;;
9100;SDS011;4586;52.518;13.486;2024-02-26T07:53:08;13.50;;;8.67;;
9100;SDS011;4586;52.518;13.486;2024-02-26T07:57:10;13.43;;;8.23;;
9100;SDS011;4586;52.518;13.486;2024-02-26T08:01:13;11.13;;;7.80;;
9100;SDS011;4586;52.518;13.486;2024-02-26T08:05:17;14.50;;;8.40;;
9100;SDS011;4586;52.518;13.486;2024-02-26T08:09:19;13.60;;;9.50;;
9100;SDS011;4586;52.518;13.486;2024-02-26T08:13:22;16.67;;;11.20;;
9100;SDS011;4586;52.518;13.486;2024-02-26T08:17:24;15.27;;;8.47;;
9100;SDS011;4586;52.518;13.486;2024-02-26T08:21:26;16.07;;;10.33;;
9100;SDS011;4586;52.518;13.486;2024-02-26T08:25:28;14.07;;;9.13;;
9100;SDS011;4586;52.518;13.486;2024-02-26T08:29:30;14.07;;;9.67;;
9100;SDS011;4586;52.518;13.486;2024-02-26T08:33:33;13.77;;;10.00;;
9100;SDS011;4586;52.518;13.486;2024-02-26T08:37:35;12.87;;;8.90;;
9100;SDS011;4586;52.518;13.486;2024-02-26T08:41:37;14.97;;;10.40;;
9100;SDS011;4586;52.518;13.486;2024-02-26T08:45:39;13.90;;;8.47;;
9100;SDS011;4586;52.518;13.486;2024-02-26T08:49:42;14.37;;;9.97;;
9100;SDS011;4586;52.518;13.486;2024-02-26T08:53:44;18.20;;;10.20;;
9100;SDS011;4586;52.518;13.486;2024-02-26T08:57:47;25.43;;;13.47;;
9100;SDS011;4586;52.518;13.486;2024-02-26T09:01:49;16.27;;;9.93;;
9100;SDS011;4586;52.518;13.486;2024-02-26T09:05:51;16.10;;;10.97;;
9100;SDS011;4586;52.518;13.486;2024-02-26T09:09:53;12.60;;;9.70;;
9100;SDS011;4586;52.518;13.486;2024-02-26T09:13:55;13.37;;;8.70;;
9100;SDS011;4586;52.518;13.486;2024-02-26T09:17:57;15.50;;;9.90;;
9100;SDS011;4586;52.518;13.486;2024-02-26T09:22:00;14.57;;;9.47;;
9100;SDS011;4586;52.518;13.486;2024-02-26T09:26:02;51.60;;;32.07;;
9100;SDS011;4586;52.518;13.486;2024-02-26T09:30:05;14.90;;;9.77;;
9100;SDS011;4586;52.518;13.486;2024-02-26T09:34:07;13.17;;;9.27;;
9100;SDS011;4586;52.518;13.486;2024-02-26T09:38:09;13.73;;;8.73;;
9100;SDS011;4586;52.518;13.486;2024-02-26T09:42:11;10.67;;;7.97;;
9100;SDS011;4586;52.518;13.486;2024-02-26T09:46:14;12.13;;;9.00;;
9100;SDS011;4586;52.518;13.486;2024-02-26T09:50:17;18.83;;;13.60;;
9100;SDS011;4586;52.518;13.486;2024-02-26T09:54:19;13.37;;;9.33;;
9100;SDS011;4586;52.518;13.486;2024-02-26T09:58:22;14.13;;;8.47;;
9100;SDS011;4586;52.518;13.486;2024-02-26T10:02:24;11.63;;;8.07;;
9100;SDS011;4586;52.518;13.486;2024-02-26T10:06:27;33.70;;;17.87;;
9100;SDS011;4586;52.518;13.486;2024-02-26T10:10:29;13.00;;;8.27;;
9100;SDS011;4586;52.518;13.486;2024-02-26T10:14:32;14.10;;;7.97;;
9100;SDS011;4586;52.518;13.486;2024-02-26T10:18:50;11.47;;;7.73;;
9100;SDS011;4586;52.518;13.486;2024-02-26T10:23:03;17.53;;;10.53;;
9100;SDS011;4586;52.518;13.486;2024-02-26T10:27:05;14.57;;;8.90;;
9100;SDS011;4586;52.518;13.486;2024-02-26T10:31:08;12.17;;;8.00;;
9100;SDS011;4586;52.518;13.486;2024-02-26T10:35:10;10.13;;;7.30;;
9100;SDS011;4586;52.518;13.486;2024-02-26T10:39:13;10.10;;;7.63;;
9100;SDS011;4586;52.518;13.486;2024-02-26T10:43:15;12.13;;;8.27;;
9100;SDS011;4586;52.518;13.486;2024-02-26T10:47:17;11.03;;;7.43;;
9100;SDS011;4586;52.518;13.486;2024-02-26T10:51:20;11.27;;;6.60;;
9100;SDS011;4586;52.518;13.486;2024-02-26T10:55:23;14.50;;;10.10;;
9100;SDS011;4586;52.518;13.486;2024-02-26T10:59:25;15.63;;;9.23;;
9100;SDS011;4586;52.518;13.486;2024-02-26T11:03:28;10.90;;;7.30;;
9100;SDS011;4586;52.518;13.486;2024-02-26T11:07:32;9.80;;;6.87;;
9100;SDS011;4586;52.518;13.486;2024-02-26T11:11:34;9.03;;;5.87;;
9100;SDS011;4586;52.518;13.486;2024-02-26T11:15:37;10.10;;;6.17;;
9100;SDS011;4586;52.518;13.486;2024-02-26T11:19:39;8.23;;;5.87;;
9100;SDS011;4586;52.518;13.486;2024-02-26T11:23:44;9.27;;;6.40;;
9100;SDS011;4586;52.518;13.486;2024-02-26T11:27:58;7.93;;;5.60;;
9100;SDS011;4586;52.518;13.486;2024-02-26T11:32:01;9.37;;;6.00;;
9100;SDS011;4586;52.518;13.486;2024-02-26T11:36:08;9.37;;;5.80;;
9100;SDS011;4586;52.518;13.486;2024-02-26T11:40:13;8.63;;;6.17;;
9100;SDS011;4586;52.518;13.486;2024-02-26T11:44:28;8.73;;;6.10;;
9100;SDS011;4586;52.518;13.486;2024-02-26T11:48:30;9.63;;;7.10;;
9100;SDS011;4586;52.518;13.486;2024-02-26T11:52:34;13.10;;;6.80;;
9100;SDS011;4586;52.518;13.486;2024-02-26T11:56:40;12.47;;;7.43;;
9100;SDS011;4586;52.518;13.486;2024-02-26T12:00:42;11.50;;;7.80;;
9100;SDS011;4586;52.518;13.486;2024-02-26T12:04:44;10.80;;;6.83;;
9100;SDS011;4586;52.518;13.486;2024-02-26T12:08:46;11.23;;;7.80;;
9100;SDS011;4586;52.518;13.486;2024-02-26T12:12:49;12.33;;;8.10;;
9100;SDS011;4586;52.518;13.486;2024-02-26T12:16:51;13.47;;;8.67;;
9100;SDS011;4586;52.518;13.486;2024-02-26T12:21:00;10.13;;;7.90;;
9100;SDS011;4586;52.518;13.486;2024-02-26T12:25:03;13.60;;;9.30;;
9100;SDS011;4586;52.518;13.486;2024-02-26T12:29:06;13.67;;;8.13;;
9100;SDS011;4586;52.518;13.486;2024-02-26T12:33:08;10.10;;;7.33;;
9100;SDS011;4586;52.518;13.486;2024-02-26T12:37:10;11.43;;;7.73;;
9100;SDS011;4586;52.518;13.486;2024-02-26T12:41:13;10.43;;;6.50;;
9100;SDS011;4586;52.518;13.486;2024-02-26T12:45:15;2.10;;;1.53;;
9100;SDS011;4586;52.518;13.486;2024-02-26T12:49:17;11.47;;;7.03;;
9100;SDS011;4586;52.518;13.486;2024-02-26T12:53:20;9.37;;;5.47;;
9100;SDS011;4586;52.518;13.486;2024-02-26T12:57:23;6.27;;;4.23;;
9100;SDS011;4586;52.518;13.486;2024-02-26T13:01:25;8.93;;;6.43;;
9100;SDS011;4586;52.518;13.486;2024-02-26T13:05:28;9.83;;;6.27;;
9100;SDS011;4586;52.518;13.486;2024-02-26T13:09:34;7.93;;;6.20;;
9100;SDS011;4586;52.518;13.486;2024-02-26T13:13:36;8.20;;;5.93;;
9100;SDS011;4586;52.518;13.486;2024-02-26T13:17:38;7.70;;;5.43;;
9100;SDS011;4586;52.518;13.486;2024-02-26T13:21:40;7.00;;;5.30;;
9100;SDS011;4586;52.518;13.486;2024-02-26T13:25:43;5.97;;;4.27;;
9100;SDS011;4586;52.518;13.486;2024-02-26T13:29:46;7.80;;;4.97;;
9100;SDS011;4586;52.518;13.486;2024-02-26T13:33:48;11.00;;;5.60;;
9100;SDS011;4586;52.518;13.486;2024-02-26T13:37:51;6.33;;;4.73;;
9100;SDS011;4586;52.518;13.486;2024-02-26T13:41:53;9.73;;;5.40;;
9100;SDS011;4586;52.518;13.486;2024-02-26T13:45:56;13.73;;;6.53;;
9100;SDS011;4586;52.518;13.486;2024-02-26T13:49:58;6.10;;;4.47;;
9100;SDS011;4586;52.518;13.486;2024-02-26T13:54:01;6.60;;;4.83;;
9100;SDS011;4586;52.518;13.486;2024-02-26T13:58:04;11.47;;;5.17;;
9100;SDS011;4586;52.518;13.486;2024-02-26T14:02:06;6.33;;;4.93;;
9100;SDS011;4586;52.518;13.486;2024-02-26T14:06:08;11.30;;;6.70;;
9100;SDS011;4586;52.518;13.486;2024-02-26T14:10:11;7.77;;;5.40;;
9100;SDS011;4586;52.518;13.486;2024-02-26T14:14:13;9.60;;;5.53;;
9100;SDS011;4586;52.518;13.486;2024-02-26T14:18:16;7.63;;;5.30;;
9100;SDS011;4586;52.518;13.486;2024-02-26T14:22:18;7.83;;;4.77;;
9100;SDS011;4586;52.518;13.486;2024-02-26T14:26:20;7.33;;;5.23;;
9100;SDS011;4586;52.518;13.486;2024-02-26T14:30:22;6.57;;;5.53;;
9100;SDS011;4586;52.518;13.486;2024-02-26T14:34:24;7.33;;;5.00;;
9100;SDS011;4586;52.518;13.486;2024-02-26T14:38:27;12.63;;;8.97;;
9100;SDS011;4586;52.518;13.486;2024-02-26T14:42:29;9.07;;;5.23;;
9100;SDS011;4586;52.518;13.486;2024-02-26T14:46:32;7.60;;;5.27;;
9100;SDS011;4586;52.518;13.486;2024-02-26T14:50:34;6.90;;;5.23;;
9100;SDS011;4586;52.518;13.486;2024-02-26T14:54:36;7.67;;;5.33;;
9100;SDS011;4586;52.518;13.486;2024-02-26T14:58:38;9.87;;;5.73;;
9100;SDS011;4586;52.518;13.486;2024-02-26T15:02:41;8.43;;;5.80;;
9100;SDS011;4586;52.518;13.486;2024-02-26T15:06:43;11.13;;;5.33;;
9100;SDS011;4586;52.518;13.486;2024-02-26T15:10:46;10.40;;;6.10;;
9100;SDS011;4586;52.518;13.486;2024-02-26T15:14:48;8.37;;;5.50;;
9100;SDS011;4586;52.518;13.486;2024-02-26T15:18:50;10.30;;;6.93;;
9100;SDS011;4586;52.518;13.486;2024-02-26T15:22:52;7.70;;;5.13;;
9100;SDS011;4586;52.518;13.486;2024-02-26T15:26:54;7.90;;;5.40;;
9100;SDS011;4586;52.518;13.486;2024-02-26T15:30:58;7.70;;;5.40;;
9100;SDS011;4586;52.518;13.486;2024-02-26T15:35:00;11.77;;;6.27;;
9100;SDS011;4586;52.518;13.486;2024-02-26T15:39:02;8.27;;;6.50;;
9100;SDS011;4586;52.518;13.486;2024-02-26T15:43:05;9.47;;;6.43;;
9100;SDS011;4586;52.518;13.486;2024-02-26T15:47:07;9.20;;;6.63;;
9100;SDS011;4586;52.518;13.486;2024-02-26T15:51:17;10.47;;;6.93;;
9100;SDS011;4586;52.518;13.486;2024-02-26T15:55:20;12.13;;;6.70;;
9100;SDS011;4586;52.518;13.486;2024-02-26T15:59:23;10.80;;;7.53;;
9100;SDS011;4586;52.518;13.486;2024-02-26T16:03:25;11.63;;;8.40;;
9100;SDS011;4586;52.518;13.486;2024-02-26T16:07:30;13.93;;;8.60;;
9100;SDS011;4586;52.518;13.486;2024-02-26T16:11:33;11.33;;;7.90;;
9100;SDS011;4586;52.518;13.486;2024-02-26T16:15:35;11.20;;;7.43;;
9100;SDS011;4586;52.518;13.486;2024-02-26T16:19:38;13.47;;;8.67;;
9100;SDS011;4586;52.518;13.486;2024-02-26T16:23:40;11.80;;;8.30;;
9100;SDS011;4586;52.518;13.486;2024-02-26T16:27:42;16.83;;;9.03;;
9100;SDS011;4586;52.518;13.486;2024-02-26T16:31:45;10.33;;;8.17;;
9100;SDS011;4586;52.518;13.486;2024-02-26T16:35:51;11.97;;;8.17;;
9100;SDS011;4586;52.518;13.486;2024-02-26T16:39:53;12.33;;;8.97;;
9100;SDS011;4586;52.518;13.486;2024-02-26T16:43:55;12.57;;;8.17;;
9100;SDS011;4586;52.518;13.486;2024-02-26T16:47:57;12.80;;;9.00;;
9100;SDS011;4586;52.518;13.486;2024-02-26T16:52:00;11.23;;;7.97;;
9100;SDS011;4586;52.518;13.486;2024-02-26T16:56:02;10.83;;;7.90;;
9100;SDS011;4586;52.518;13.486;2024-02-26T17:00:04;11.17;;;7.57;;
9100;SDS011;4586;52.518;13.486;2024-02-26T17:04:07;13.03;;;8.70;;
9100;SDS011;4586;52.518;13.486;2024-02-26T17:08:09;9.43;;;7.57;;
9100;SDS011;4586;52.518;13.486;2024-02-26T17:12:11;10.07;;;7.07;;
9100;SDS011;4586;52.518;13.486;2024-02-26T17:16:14;10.17;;;7.13;;
9100;SDS011;4586;52.518;13.486;2024-02-26T17:20:16;19.13;;;10.67;;
9100;SDS011;4586;52.518;13.486;2024-02-26T17:24:18;9.83;;;7.23;;
9100;SDS011;4586;52.518;13.486;2024-02-26T17:28:20;14.13;;;8.43;;
9100;SDS011;4586;52.518;13.486;2024-02-26T17:32:22;13.83;;;9.20;;
9100;SDS011;4586;52.518;13.486;2024-02-26T17:36:25;18.73;;;10.50;;
9100;SDS011;4586;52.518;13.486;2024-02-26T17:40:27;20.43;;;11.30;;
9100;SDS011;4586;52.518;13.486;2024-02-26T17:44:33;17.83;;;10.73;;
9100;SDS011;4586;52.518;13.486;2024-02-26T17:48:35;17.03;;;10.40;;
9100;SDS011;4586;52.518;13.486;2024-02-26T17:52:37;19.53;;;10.70;;
9100;SDS011;4586;52.518;13.486;2024-02-26T17:56:39;17.23;;;10.37;;
9100;SDS011;4586;52.518;13.486;2024-02-26T18:00:42;17.70;;;10.90;;
9100;SDS011;4586;52.518;13.486;2024-02-26T18:04:44;18.80;;;10.53;;
9100;SDS011;4586;52.518;13.486;2024-02-26T18:08:46;32.13;;;14.57;;
9100;SDS011;4586;52.518;13.486;2024-02-26T18:12:49;19.40;;;10.10;;
9100;SDS011;4586;52.518;13.486;2024-02-26T18:16:51;15.93;;;8.93;;
9100;SDS011;4586;52.518;13.486;2024-02-26T18:20:53;16.40;;;9.13;;
9100;SDS011;4586;52.518;13.486;2024-02-26T18:24:55;12.90;;;8.57;;
9100;SDS011;4586;52.518;13.486;2024-02-26T18:28:57;13.20;;;8.23;;
9100;SDS011;4586;52.518;13.486;2024-02-26T18:33:00;12.77;;;9.40;;
9100;SDS011;4586;52.518;13.486;2024-02-26T18:37:02;11.73;;;8.10;;
9100;SDS011;4586;52.518;13.486;2024-02-26T18:41:04;12.23;;;7.20;;
9100;SDS011;4586;52.518;13.486;2024-02-26T18:45:06;11.07;;;7.17;;
9100;SDS011;4586;52.518;13.486;2024-02-26T18:49:09;9.70;;;7.33;;
9100;SDS011;4586;52.518;13.486;2024-02-26T18:53:11;9.70;;;6.90;;
9100;SDS011;4586;52.518;13.486;2024-02-26T18:57:13;9.13;;;6.90;;
9100;SDS011;4586;52.518;13.486;2024-02-26T19:01:15;8.70;;;6.33;;
9100;SDS011;4586;52.518;13.486;2024-02-26T19:05:18;8.23;;;5.50;;
9100;SDS011;4586;52.518;13.486;2024-02-26T19:09:20;8.47;;;6.00;;
9100;SDS011;4586;52.518;13.486;2024-02-26T19:13:22;10.13;;;6.33;;
9100;SDS011;4586;52.518;13.486;2024-02-26T19:17:24;8.53;;;5.23;;
9100;SDS011;4586;52.518;13.486;2024-02-26T19:21:27;7.50;;;6.10;;
9100;SDS011;4586;52.518;13.486;2024-02-26T19:25:29;9.67;;;5.93;;
9100;SDS011;4586;52.518;13.486;2024-02-26T19:29:31;8.13;;;5.97;;
9100;SDS011;4586;52.518;13.486;2024-02-26T19:33:33;9.67;;;5.90;;
9100;SDS011;4586;52.518;13.486;2024-02-26T19:37:35;8.07;;;5.57;;
9100;SDS011;4586;52.518;13.486;2024-02-26T19:41:38;8.07;;;5.80;;
9100;SDS011;4586;52.518;13.486;2024-02-26T19:45:40;8.23;;;5.73;;
9100;SDS011;4586;52.518;13.486;2024-02-26T19:49:42;6.97;;;5.67;;
9100;SDS011;4586;52.518;13.486;2024-02-26T19:53:45;7.17;;;5.60;;
9100;SDS011;4586;52.518;13.486;2024-02-26T19:57:47;9.13;;;4.73;;
9100;SDS011;4586;52.518;13.486;2024-02-26T20:01:49;8.53;;;4.97;;
9100;SDS011;4586;52.518;13.486;2024-02-26T20:05:51;15.40;;;8.67;;
9100;SDS011;4586;52.518;13.486;2024-02-26T20:09:54;16.83;;;10.17;;
9100;SDS011;4586;52.518;13.486;2024-02-26T20:13:56;9.57;;;6.13;;
9100;SDS011;4586;52.518;13.486;2024-02-26T20:17:58;8.47;;;5.43;;
9100;SDS011;4586;52.518;13.486;2024-02-26T20:22:00;6.50;;;4.60;;
9100;SDS011;4586;52.518;13.486;2024-02-26T20:26:03;8.20;;;5.70;;
9100;SDS011;4586;52.518;13.486;2024-02-26T20:30:05;11.23;;;6.20;;
9100;SDS011;4586;52.518;13.486;2024-02-26T20:34:07;7.40;;;5.43;;
9100;SDS011;4586;52.518;13.486;2024-02-26T20:38:10;9.10;;;5.10;;
9100;SDS011;4586;52.518;13.486;2024-02-26T20:42:12;7.20;;;5.30;;
9100;SDS011;4586;52.518;13.486;2024-02-26T20:46:14;9.40;;;5.60;;
9100;SDS011;4586;52.518;13.486;2024-02-26T20:50:18;10.53;;;7.60;;
9100;SDS011;4586;52.518;13.486;2024-02-26T20:54:20;9.33;;;6.13;;
9100;SDS011;4586;52.518;13.486;2024-02-26T20:58:23;7.27;;;5.70;;
9100;SDS011;4586;52.518;13.486;2024-02-26T21:02:25;9.53;;;5.63;;
9100;SDS011;4586;52.518;13.486;2024-02-26T21:06:36;9.10;;;5.60;;
9100;SDS011;4586;52.518;13.486;2024-02-26T21:10:38;7.47;;;5.57;;
9100;SDS011;4586;52.518;13.486;2024-02-26T21:14:41;7.57;;;5.80;;
9100;SDS011;4586;52.518;13.486;2024-02-26T21:18:43;8.07;;;5.10;;
9100;SDS011;4586;52.518;13.486;2024-02-26T21:22:45;7.30;;;4.80;;
9100;SDS011;4586;52.518;13.486;2024-02-26T21:26:48;7.13;;;5.77;;
9100;SDS011;4586;52.518;13.486;2024-02-26T21:30:50;9.57;;;6.17;;
9100;SDS011;4586;52.518;13.486;2024-02-26T21:34:52;12.33;;;7.30;;
9100;SDS011;4586;52.518;13.486;2024-02-26T21:38:55;8.17;;;5.23;;
9100;SDS011;4586;52.518;13.486;2024-02-26T21:42:57;9.20;;;5.30;;
9100;SDS011;4586;52.518;13.486;2024-02-26T21:46:59;7.57;;;5.50;;
9100;SDS011;4586;52.518;13.486;2024-02-26T21:51:02;5.33;;;4.63;;
9100;SDS011;4586;52.518;13.486;2024-02-26T21:55:04;5.63;;;4.50;;
9100;SDS011;4586;52.518;13.486;2024-02-26T21:59:07;8.07;;;4.53;;
9100;SDS011;4586;52.518;13.486;2024-02-26T22:03:09;7.13;;;4.83;;
9100;SDS011;4586;52.518;13.486;2024-02-26T22:07:11;6.17;;;4.40;;
9100;SDS011;4586;52.518;13.486;2024-02-26T22:11:13;6.07;;;4.27;;
9100;SDS011;4586;52.518;13.486;2024-02-26T22:15:16;8.13;;;4.60;;
9100;SDS011;4586;52.518;13.486;2024-02-26T22:19:18;5.47;;;4.13;;
9100;SDS011;4586;52.518;13.486;2024-02-26T22:23:20;6.30;;;5.00;;
9100;SDS011;4586;52.518;13.486;2024-02-26T22:27:22;6.43;;;4.70;;
9100;SDS011;4586;52.518;13.486;2024-02-26T22:31:25;5.80;;;4.37;;
9100;SDS011;4586;52.518;13.486;2024-02-26T22:35:27;6.50;;;4.50;;
9100;SDS011;4586;52.518;13.486;2024-02-26T22:39:29;5.00;;;4.20;;
9100;SDS011;4586;52.518;13.486;2024-02-26T22:43:31;7.47;;;5.03;;
9100;SDS011;4586;52.518;13.486;2024-02-26T22:47:33;6.87;;;4.90;;
9100;SDS011;4586;52.518;13.486;2024-02-26T22:51:36;8.60;;;5.90;;
9100;SDS011;4586;52.518;13.486;2024-02-26T22:55:38;6.80;;;4.90;;
9100;SDS011;4586;52.518;13.486;2024-02-26T22:59:40;7.00;;;5.07;;
9100;SDS011;4586;52.518;13.486;2024-02-26T23:03:42;6.37;;;4.83;;
9100;SDS011;4586;52.518;13.486;2024-02-26T23:07:45;4.83;;;3.90;;
9100;SDS011;4586;52.518;13.486;2024-02-26T23:11:47;6.07;;;4.57;;
9100;SDS011;4586;52.518;13.486;2024-02-26T23:15:50;5.07;;;4.37;;
9100;SDS011;4586;52.518;13.486;2024-02-26T23:19:52;7.33;;;4.83;;
9100;SDS011;4586;52.518;13.486;2024-02-26T23:23:54;8.00;;;5.13;;
9100;SDS011;4586;52.518;13.486;2024-02-26T23:27:56;5.53;;;4.23;;
9100;SDS011;4586;52.518;13.486;2024-02-26T23:31:58;8.63;;;5.60;;
9100;SDS011;4586;52.518;13.486;2024-02-26T23:36:00;5.67;;;4.43;;
9100;SDS011;4586;52.518;13.486;2024-02-26T23:40:03;6.93;;;4.40;;
9100;SDS011;4586;52.518;13.486;2024-02-26T23:44:06;6.77;;;4.57;;
9100;SDS011;4586;52.518;13.486;2024-02-26T23:48:08;4.90;;;4.07;;
9100;SDS011;4586;52.518;13.486;2024-02-26T23:52:10;6.27;;;4.40;;
9100;SDS011;4586;52.518;13.486;2024-02-26T23:56:12;4.80;;;4.27;;
